Buoy 51523

sailwx.info

Track history (hours):
 
Tides and Currents Weather Stations Pressure Air Temp Water Temp Dewpoint Dewpoint Depression Visibility Wind Speed Wind Dir Waves Ship Positions

Drifting buoy 51523

Last reported at 2016-Sep-25 21:15 UTC. Time now 2016-Sep-25 22:32 UTC.
Position N 24°20' E 124°11'.

Water temperature 27.9 ° C

Date/timePositionNaut miles runAvg speedWind from/ knotsBaromVisibWave heightAir tempDewpointWater temp
2016-Sep-25 21:15N 24°20' E 124°11'0 0.0 27.9
2016-Sep-25 17:30N 24°20' E 124°11'0 0.0 28.0
2016-Sep-25 12:30N 24°20' E 124°11'0 0.0 28.3
2016-Sep-25 12:15N 24°20' E 124°11'0 0.0 28.3
2016-Sep-25 10:30N 24°20' E 124°11'0 0.0 28.8
2016-Sep-25 08:45N 24°20' E 124°11'0 0.0 29.7
2016-Sep-25 06:30N 24°20' E 124°11'0 0.0 31.2
2016-Sep-25 05:00N 24°20' E 124°11'0 0.0 31.6
2016-Sep-24 22:30N 24°20' E 124°11'0 0.0 26.5
2016-Sep-24 22:00N 24°20' E 124°11'0 0.9 26.0
2016-Sep-24 21:45N 24°20' E 124°11'1 2.1 26.0
2016-Sep-24 21:30N 24°20' E 124°12'0 0.1 25.9
2016-Sep-24 20:45N 24°20' E 124°12'0 0.2 25.7
2016-Sep-24 19:30N 24°20' E 124°11'0 0.6 26.2
2016-Sep-24 19:15N 24°20' E 124°11'0 0.0 26.3
2016-Sep-24 17:45N 24°20' E 124°11'0 0.0 26.7
2016-Sep-24 17:30N 24°20' E 124°11'1 0.2 26.8
2016-Sep-24 12:00N 24°20' E 124°12'0 0.0 27.4
2016-Sep-24 11:00N 24°20' E 124°12'0 0.2 27.7
2016-Sep-24 09:45N 24°20' E 124°12'0 0.0 28.7
2016-Sep-24 09:30N 24°20' E 124°12'0 2.0 29.1
2016-Sep-24 09:15N 24°20' E 124°11'0 0.1 29.5
2016-Sep-24 07:30N 24°20' E 124°12'0 0.0 32.1
2016-Sep-24 06:45N 24°20' E 124°12'0 0.1 34.0
2016-Sep-24 05:15N 24°20' E 124°11'0 0.0 33.8
2016-Sep-24 05:00N 24°20' E 124°11'0 0.1 33.9
2016-Sep-24 01:45N 24°20' E 124°12'0 0.9 31.8
2016-Sep-24 01:30N 24°20' E 124°12'0 0.1 31.2
2016-Sep-23 22:00N 24°20' E 124°11'0 0.0 25.9
2016-Sep-23 21:15N 24°20' E 124°11'0 0.1 25.8
2016-Sep-23 19:30N 24°20' E 124°11'0 0.0 26.0
2016-Sep-23 18:00N 24°20' E 124°11'0 0.0 26.4
2016-Sep-23 17:45N 24°20' E 124°11'0 0.1 26.5
2016-Sep-23 14:00N 24°20' E 124°12'0 0.0 27.1
2016-Sep-23 13:45N 24°20' E 124°12'0 0.0 27.2
2016-Sep-23 13:00N 24°20' E 124°12'0 0.1 27.2
2016-Sep-23 12:15N 24°20' E 124°12'0 0.3 27.4
2016-Sep-23 11:30N 24°20' E 124°11'0 0.1 27.5
2016-Sep-23 10:15N 24°20' E 124°11'0 0.0 27.7
2016-Sep-23 10:00N 24°20' E 124°11'0 0.7 27.8
2016-Sep-23 09:45N 24°20' E 124°12'0 0.7 28.1
2016-Sep-23 09:30N 24°20' E 124°11'0 0.0 28.4
2016-Sep-23 08:30N 24°20' E 124°11'0 0.0 29.6
2016-Sep-23 08:00N 24°20' E 124°11'0 0.0 31.1
2016-Sep-23 05:30N 24°20' E 124°11'0 0.0 33.9
2016-Sep-23 05:15N 24°20' E 124°11'1 0.2 33.3
2016-Sep-23 02:00N 24°20' E 124°12'0 0.0 31.8
2016-Sep-23 01:45N 24°20' E 124°12'0 0.0 31.7
2016-Sep-23 01:00N 24°20' E 124°12'1 0.9 31.1
2016-Sep-23 00:15N 24°20' E 124°11'0 0.0 29.5
2016-Sep-22 22:30N 24°20' E 124°11'0 1.0 26.5
2016-Sep-22 22:15N 24°20' E 124°11'0 0.0 26.3
2016-Sep-22 22:00N 24°20' E 124°11'0 0.8 26.3
2016-Sep-22 21:45N 24°20' E 124°11'0 0.3 26.2
2016-Sep-22 20:45N 24°20' E 124°11'0 0.0 26.2
2016-Sep-22 20:30N 24°20' E 124°11'0 0.0 26.2
2016-Sep-22 20:15N 24°20' E 124°11'0 0.0 25.9
2016-Sep-22 20:00N 24°20' E 124°11'0 0.2 25.7
2016-Sep-22 19:45N 24°20' E 124°11'0 0.0 25.8
2016-Sep-22 18:00N 24°20' E 124°11'0 0.1 26.2
2016-Sep-22 11:45N 24°20' E 124°11'0 0.0 27.1
2016-Sep-22 10:45N 24°20' E 124°11'0 0.4 26.7
2016-Sep-22 10:00N 24°20' E 124°11'0 0.0 25.7
2016-Sep-22 09:45N 24°20' E 124°11'0 0.0 25.8
2016-Sep-22 09:30N 24°20' E 124°11'0 0.0 26.9
2016-Sep-22 09:00N 24°20' E 124°11'0 0.0 27.2
2016-Sep-22 08:30N 24°20' E 124°11'0 1.6 28.0
2016-Sep-22 08:15N 24°20' E 124°11'0 0.0 28.6
2016-Sep-22 08:00N 24°20' E 124°11'0 0.0 29.8
2016-Sep-22 05:30N 24°20' E 124°11'0 0.0 31.7
2016-Sep-22 02:15N 24°20' E 124°11'0 0.1 28.1
2016-Sep-22 01:30N 24°20' E 124°11'0 0.0 27.2
2016-Sep-22 01:15N 24°20' E 124°11'0 0.0 26.6
2016-Sep-22 00:30N 24°20' E 124°11'1 0.4 26.0
2016-Sep-21 22:30N 24°20' E 124°12'0 0.0 24.8
2016-Sep-21 22:15N 24°20' E 124°12'1 0.4 24.5
2016-Sep-21 20:45N 24°20' E 124°11'1 0.4 24.9
2016-Sep-21 18:15N 24°20' E 124°10'0 0.0 24.6
2016-Sep-21 13:45N 24°20' E 124°10'0 0.0 25.5
2016-Sep-21 13:00N 24°20' E 124°10'0 0.0 25.0
2016-Sep-21 12:45N 24°20' E 124°10'1 2.3 25.0
2016-Sep-21 12:15N 24°20' E 124°12'0 0.0 27.1
2016-Sep-21 12:00N 24°20' E 124°12'0 0.0 27.1
2016-Sep-21 11:15N 24°20' E 124°12'0 0.1 27.2
2016-Sep-21 10:30N 24°20' E 124°11'1 1.0 27.1
2016-Sep-21 10:00N 24°20' E 124°12'1 2.9 27.2
2016-Sep-21 09:45N 24°20' E 124°11'0 0.0 27.2
2016-Sep-21 09:30N 24°20' E 124°11'0 0.1 27.3
2016-Sep-21 08:45N 24°20' E 124°11'0 0.0 27.6
2016-Sep-21 08:15N 24°20' E 124°11'0 0.2 27.9
2016-Sep-21 05:45N 24°20' E 124°11'1 0.2 33.7
2016-Sep-21 01:45N 24°20' E 124°11'0 0.0 29.3
2016-Sep-21 01:00N 24°20' E 124°11'0 0.0 29.4
2016-Sep-21 00:45N 24°20' E 124°11'0 0.1 29.4
2016-Sep-20 22:45N 24°20' E 124°11'0 0.0 26.1
2016-Sep-20 22:30N 24°20' E 124°11'0 0.2 25.8
2016-Sep-20 21:30N 24°20' E 124°11'0 0.0 25.4
2016-Sep-20 21:15N 24°20' E 124°11'0 0.7 25.5
2016-Sep-20 21:00N 24°20' E 124°12'0 0.1 25.6
2016-Sep-20 18:30N 24°20' E 124°11'0 0.0 25.6
2016-Sep-20 18:15N 24°20' E 124°11'0 0.0 25.3
2016-Sep-20 13:15N 24°20' E 124°11'0 0.2 26.1
2016-Sep-20 12:30N 24°20' E 124°11'1 1.2 26.0
2016-Sep-20 11:45N 24°20' E 124°10'0 0.0 26.0
2016-Sep-20 11:30N 24°20' E 124°10'1 0.6 26.1
2016-Sep-20 10:00N 24°20' E 124°11'0 0.5 27.3
2016-Sep-20 09:15N 24°20' E 124°12'0 0.0 29.1
2016-Sep-20 09:00N 24°20' E 124°12'0 0.0 29.6
2016-Sep-20 08:30N 24°20' E 124°12'0 0.0 29.9
2016-Sep-20 08:15N 24°20' E 124°12'0 0.0 32.8
2016-Sep-20 07:30N 24°20' E 124°12'0 0.2 30.7
2016-Sep-20 06:00N 24°20' E 124°11'1 3.2 30.5
2016-Sep-20 05:45N 24°20' E 124°11'1 0.3 30.8
2016-Sep-20 02:00N 24°20' E 124°12'0 0.0 34.2
2016-Sep-20 01:15N 24°20' E 124°12'1 0.9 31.7
2016-Sep-20 00:30N 24°20' E 124°12'0 0.0 29.7
2016-Sep-20 00:15N 24°20' E 124°12'1 0.6 29.1
2016-Sep-19 22:45N 24°20' E 124°11'0 0.3 26.2
2016-Sep-19 22:00N 24°20' E 124°11'0 0.0 25.4
2016-Sep-19 21:45N 24°20' E 124°11'0 0.0 25.3
2016-Sep-19 21:30N 24°20' E 124°11'1 2.3 25.3
2016-Sep-19 21:15N 24°20' E 124°11'0 0.0 25.3
2016-Sep-19 21:00N 24°20' E 124°11'0 0.0 25.3
2016-Sep-19 20:30N 24°20' E 124°11'0 0.0 25.5
2016-Sep-19 20:00N 24°20' E 124°11'0 0.0 25.5
2016-Sep-19 18:45N 24°20' E 124°11'0 0.0 25.3
2016-Sep-19 18:30N 24°20' E 124°11'0 0.1 25.3
2016-Sep-19 13:30N 24°20' E 124°11'0 0.6 25.8
2016-Sep-19 13:00N 24°20' E 124°12'0 0.0 25.8
2016-Sep-19 12:45N 24°20' E 124°12'0 0.0 25.8
2016-Sep-19 12:00N 24°20' E 124°12'0 0.0 25.7
2016-Sep-19 10:45N 24°20' E 124°12'0 0.5 25.7
2016-Sep-19 10:15N 24°20' E 124°11'0 0.1 25.9
2016-Sep-19 09:45N 24°20' E 124°11'1 2.1 26.4
2016-Sep-19 09:30N 24°20' E 124°11'0 0.0 26.7
2016-Sep-19 09:00N 24°20' E 124°11'0 0.0 27.2
2016-Sep-19 08:45N 24°20' E 124°11'0 0.0 27.2
2016-Sep-19 08:30N 24°20' E 124°11'0 0.5 28.6
2016-Sep-19 08:00N 24°20' E 124°11'0 0.0 30.4
2016-Sep-19 06:15N 24°20' E 124°11'0 0.0 31.8
2016-Sep-19 06:00N 24°20' E 124°11'1 0.2 32.2
2016-Sep-19 01:45N 24°20' E 124°12'1 0.2 31.8
2016-Sep-18 23:00N 24°19' E 124°12'0 0.0 25.8
2016-Sep-18 22:15N 24°19' E 124°12'0 0.0 24.9
2016-Sep-18 22:00N 24°19' E 124°12'1 1.6 24.9
2016-Sep-18 21:30N 24°20' E 124°12'0 0.0 24.9
2016-Sep-18 21:15N 24°20' E 124°12'0 0.0 24.9
2016-Sep-18 21:00N 24°20' E 124°12'0 1.5 24.9
2016-Sep-18 20:45N 24°20' E 124°12'0 0.0 24.9
2016-Sep-18 20:30N 24°20' E 124°12'0 0.2 25.0
2016-Sep-18 19:00N 24°20' E 124°12'0 0.0 24.9
2016-Sep-18 18:45N 24°20' E 124°12'1 0.3 24.8
2016-Sep-18 17:15N 24°20' E 124°11'0 0.0 24.2
2016-Sep-18 17:00N 24°20' E 124°11'0 0.0 24.3
2016-Sep-18 14:00N 24°20' E 124°11'0 0.0 25.0
2016-Sep-18 13:15N 24°20' E 124°11'1 0.6 24.9
2016-Sep-18 12:15N 24°20' E 124°12'0 0.2 25.2
2016-Sep-18 10:30N 24°20' E 124°11'0 0.3 25.7
2016-Sep-18 10:00N 24°20' E 124°11'0 0.3 25.8
2016-Sep-18 09:30N 24°20' E 124°11'0 0.7 25.9
2016-Sep-18 09:15N 24°20' E 124°11'0 0.6 26.1
2016-Sep-18 08:45N 24°20' E 124°12'0 0.0 26.7
2016-Sep-18 08:30N 24°20' E 124°12'0 0.0 27.8
2016-Sep-18 08:15N 24°20' E 124°12'0 0.0 27.9
2016-Sep-18 06:15N 24°20' E 124°11'0 0.0 27.9
2016-Sep-18 04:30N 24°20' E 124°11'0 0.0 27.9
2016-Sep-17 23:15N 24°20' E 124°11'0 0.0 27.4
2016-Sep-17 23:00N 24°20' E 124°11'0 0.0 27.5
2016-Sep-17 22:45N 24°20' E 124°11'0 0.0 27.4
2016-Sep-17 21:30N 24°20' E 124°11'0 0.7 27.3
2016-Sep-17 21:15N 24°20' E 124°11'0 0.0 27.7
2016-Sep-17 21:00N 24°20' E 124°11'0 0.1 27.7
2016-Sep-17 19:00N 24°20' E 124°11'0 0.1 28.0
2016-Sep-17 17:30N 24°20' E 124°11'0 0.5 28.1
2016-Sep-17 17:15N 24°20' E 124°11'0 0.0 28.2
2016-Sep-17 14:15N 24°20' E 124°11'1 0.4 28.4
2016-Sep-17 12:45N 24°20' E 124°12'0 0.0 27.7
2016-Sep-17 12:30N 24°20' E 124°12'1 1.5 27.3
2016-Sep-17 12:00N 24°20' E 124°11'0 0.0 27.6
2016-Sep-17 11:45N 24°20' E 124°11'0 0.0 27.8
2016-Sep-17 10:45N 24°20' E 124°11'0 0.0 27.4
2016-Sep-17 10:30N 24°20' E 124°11'0 0.0 27.4
2016-Sep-17 10:00N 24°20' E 124°11'0 0.0 27.4
2016-Sep-17 09:45N 24°20' E 124°11'1 0.8 27.4
2016-Sep-17 08:45N 24°19' E 124°12'0 0.0 28.3
2016-Sep-17 06:30N 24°19' E 124°12'0 0.2 28.2
2016-Sep-17 04:45N 24°19' E 124°12'8 3.2 29.0
2016-Sep-17 02:15N 24°11' E 124°09'3 3.7 29.1
2016-Sep-17 01:30N 24°08' E 124°10'0 0.0 29.1
2016-Sep-17 01:15N 24°08' E 124°10'3 5.5 29.1
2016-Sep-17 00:45N 24°11' E 124°09'3 2.8 29.1
2016-Sep-16 23:45N 24°08' E 124°10'0 0.0 29.1
2016-Sep-16 23:30N 24°08' E 124°10'0 0.0 29.1
2016-Sep-16 23:15N 24°08' E 124°10'4 2.6 29.1
2016-Sep-16 21:45N 24°05' E 124°10'0 0.0 29.1
2016-Sep-16 21:30N 24°05' E 124°10'4 2.8 29.1
2016-Sep-16 20:00N 24°01' E 124°12'3 4.2 29.1
2016-Sep-16 19:15N 23°58' E 124°13'0 0.0 29.1
2016-Sep-16 17:30N 23°58' E 124°13'7 2.0 29.3
2016-Sep-16 14:00N 23°52' E 124°17'0 0.0 29.4
2016-Sep-16 13:45N 23°52' E 124°17'0 0.0 29.4
2016-Sep-16 13:00N 23°52' E 124°17'1 1.4 29.5
2016-Sep-16 12:15N 23°52' E 124°19'0 0.0 29.5
2016-Sep-16 12:00N 23°52' E 124°19'2 2.5 29.5
2016-Sep-16 11:15N 23°51' E 124°20'2 6.2 29.5
2016-Sep-16 11:00N 23°51' E 124°22'0 0.0 29.5
2016-Sep-16 10:45N 23°51' E 124°22'0 0.0 29.5
2016-Sep-16 10:30N 23°51' E 124°22'0 0.0 29.5
2016-Sep-16 10:15N 23°51' E 124°22'2 2.5 29.5
2016-Sep-16 09:15N 23°51' E 124°25'0 0.0 29.6
2016-Sep-16 09:00N 23°51' E 124°25'2 7.3 29.6
2016-Sep-16 08:45N 23°50' E 124°27'0 0.0 29.6
2016-Sep-16 06:45N 23°50' E 124°27'2 6.5 29.6
2016-Sep-16 06:30N 23°49' E 124°28'0 0.0 29.6
2016-Sep-16 05:00N 23°49' E 124°28'2 0.9 29.6
2016-Sep-16 02:45N 23°49' E 124°30'2 7.7 29.6
2016-Sep-16 02:30N 23°50' E 124°32'0 0.0 29.6
2016-Sep-16 01:45N 23°50' E 124°32'0 0.0 29.6
2016-Sep-16 01:00N 23°50' E 124°32'2 2.2 29.6
2016-Sep-16 00:15N 23°51' E 124°33'0 0.0 29.6
2016-Sep-16 00:00N 23°51' E 124°33'1 2.6 29.6
2016-Sep-15 23:30N 23°50' E 124°34'0 0.0 29.6
2016-Sep-15 22:15N 23°50' E 124°34'0 0.7 29.6
2016-Sep-15 22:00N 23°50' E 124°34'0 0.0 29.6
2016-Sep-15 21:45N 23°50' E 124°34'   29.6
Track history (hours):
 
Tides and Currents Weather Stations Pressure Air Temp Water Temp Dewpoint Dewpoint Depression Visibility Wind Speed Wind Dir Waves Ship Positions

Drifting buoy 51523

Last reported at 2016-Sep-25 21:15 UTC. Time now 2016-Sep-25 22:32 UTC.
Position N 24°20' E 124°11'.

Water temperature 27.9 ° C

Date/timePositionNaut miles runAvg speedWind from/ knotsBaromVisibWave heightAir tempDewpointWater temp
2016-Sep-25 21:15N 24°20' E 124°11'0 0.0 27.9
2016-Sep-25 17:30N 24°20' E 124°11'0 0.0 28.0
2016-Sep-25 12:30N 24°20' E 124°11'0 0.0 28.3
2016-Sep-25 12:15N 24°20' E 124°11'0 0.0 28.3
2016-Sep-25 10:30N 24°20' E 124°11'0 0.0 28.8
2016-Sep-25 08:45N 24°20' E 124°11'0 0.0 29.7
2016-Sep-25 06:30N 24°20' E 124°11'0 0.0 31.2
2016-Sep-25 05:00N 24°20' E 124°11'0 0.0 31.6
2016-Sep-24 22:30N 24°20' E 124°11'0 0.0 26.5
2016-Sep-24 22:00N 24°20' E 124°11'0 0.9 26.0
2016-Sep-24 21:45N 24°20' E 124°11'1 2.1 26.0
2016-Sep-24 21:30N 24°20' E 124°12'0 0.1 25.9
2016-Sep-24 20:45N 24°20' E 124°12'0 0.2 25.7
2016-Sep-24 19:30N 24°20' E 124°11'0 0.6 26.2
2016-Sep-24 19:15N 24°20' E 124°11'0 0.0 26.3
2016-Sep-24 17:45N 24°20' E 124°11'0 0.0 26.7
2016-Sep-24 17:30N 24°20' E 124°11'1 0.2 26.8
2016-Sep-24 12:00N 24°20' E 124°12'0 0.0 27.4
2016-Sep-24 11:00N 24°20' E 124°12'0 0.2 27.7
2016-Sep-24 09:45N 24°20' E 124°12'0 0.0 28.7
2016-Sep-24 09:30N 24°20' E 124°12'0 2.0 29.1
2016-Sep-24 09:15N 24°20' E 124°11'0 0.1 29.5
2016-Sep-24 07:30N 24°20' E 124°12'0 0.0 32.1
2016-Sep-24 06:45N 24°20' E 124°12'0 0.1 34.0
2016-Sep-24 05:15N 24°20' E 124°11'0 0.0 33.8
2016-Sep-24 05:00N 24°20' E 124°11'0 0.1 33.9
2016-Sep-24 01:45N 24°20' E 124°12'0 0.9 31.8
2016-Sep-24 01:30N 24°20' E 124°12'0 0.1 31.2
2016-Sep-23 22:00N 24°20' E 124°11'0 0.0 25.9
2016-Sep-23 21:15N 24°20' E 124°11'0 0.1 25.8
2016-Sep-23 19:30N 24°20' E 124°11'0 0.0 26.0
2016-Sep-23 18:00N 24°20' E 124°11'0 0.0 26.4
2016-Sep-23 17:45N 24°20' E 124°11'0 0.1 26.5
2016-Sep-23 14:00N 24°20' E 124°12'0 0.0 27.1
2016-Sep-23 13:45N 24°20' E 124°12'0 0.0 27.2
2016-Sep-23 13:00N 24°20' E 124°12'0 0.1 27.2
2016-Sep-23 12:15N 24°20' E 124°12'0 0.3 27.4
2016-Sep-23 11:30N 24°20' E 124°11'0 0.1 27.5
2016-Sep-23 10:15N 24°20' E 124°11'0 0.0 27.7
2016-Sep-23 10:00N 24°20' E 124°11'0 0.7 27.8
2016-Sep-23 09:45N 24°20' E 124°12'0 0.7 28.1
2016-Sep-23 09:30N 24°20' E 124°11'0 0.0 28.4
2016-Sep-23 08:30N 24°20' E 124°11'0 0.0 29.6
2016-Sep-23 08:00N 24°20' E 124°11'0 0.0 31.1
2016-Sep-23 05:30N 24°20' E 124°11'0 0.0 33.9
2016-Sep-23 05:15N 24°20' E 124°11'1 0.2 33.3
2016-Sep-23 02:00N 24°20' E 124°12'0 0.0 31.8
2016-Sep-23 01:45N 24°20' E 124°12'0 0.0 31.7
2016-Sep-23 01:00N 24°20' E 124°12'1 0.9 31.1
2016-Sep-23 00:15N 24°20' E 124°11'0 0.0 29.5
2016-Sep-22 22:30N 24°20' E 124°11'0 1.0 26.5
2016-Sep-22 22:15N 24°20' E 124°11'0 0.0 26.3
2016-Sep-22 22:00N 24°20' E 124°11'0 0.8 26.3
2016-Sep-22 21:45N 24°20' E 124°11'0 0.3 26.2
2016-Sep-22 20:45N 24°20' E 124°11'0 0.0 26.2
2016-Sep-22 20:30N 24°20' E 124°11'0 0.0 26.2
2016-Sep-22 20:15N 24°20' E 124°11'0 0.0 25.9
2016-Sep-22 20:00N 24°20' E 124°11'0 0.2 25.7
2016-Sep-22 19:45N 24°20' E 124°11'0 0.0 25.8
2016-Sep-22 18:00N 24°20' E 124°11'0 0.1 26.2
2016-Sep-22 11:45N 24°20' E 124°11'0 0.0 27.1
2016-Sep-22 10:45N 24°20' E 124°11'0 0.4 26.7
2016-Sep-22 10:00N 24°20' E 124°11'0 0.0 25.7
2016-Sep-22 09:45N 24°20' E 124°11'0 0.0 25.8
2016-Sep-22 09:30N 24°20' E 124°11'0 0.0 26.9
2016-Sep-22 09:00N 24°20' E 124°11'0 0.0 27.2
2016-Sep-22 08:30N 24°20' E 124°11'0 1.6 28.0
2016-Sep-22 08:15N 24°20' E 124°11'0 0.0 28.6
2016-Sep-22 08:00N 24°20' E 124°11'0 0.0 29.8
2016-Sep-22 05:30N 24°20' E 124°11'0 0.0 31.7
2016-Sep-22 02:15N 24°20' E 124°11'0 0.1 28.1
2016-Sep-22 01:30N 24°20' E 124°11'0 0.0 27.2
2016-Sep-22 01:15N 24°20' E 124°11'0 0.0 26.6
2016-Sep-22 00:30N 24°20' E 124°11'1 0.4 26.0
2016-Sep-21 22:30N 24°20' E 124°12'0 0.0 24.8
2016-Sep-21 22:15N 24°20' E 124°12'1 0.4 24.5
2016-Sep-21 20:45N 24°20' E 124°11'1 0.4 24.9
2016-Sep-21 18:15N 24°20' E 124°10'0 0.0 24.6
2016-Sep-21 13:45N 24°20' E 124°10'0 0.0 25.5
2016-Sep-21 13:00N 24°20' E 124°10'0 0.0 25.0
2016-Sep-21 12:45N 24°20' E 124°10'1 2.3 25.0
2016-Sep-21 12:15N 24°20' E 124°12'0 0.0 27.1
2016-Sep-21 12:00N 24°20' E 124°12'0 0.0 27.1
2016-Sep-21 11:15N 24°20' E 124°12'0 0.1 27.2
2016-Sep-21 10:30N 24°20' E 124°11'1 1.0 27.1
2016-Sep-21 10:00N 24°20' E 124°12'1 2.9 27.2
2016-Sep-21 09:45N 24°20' E 124°11'0 0.0 27.2
2016-Sep-21 09:30N 24°20' E 124°11'0 0.1 27.3
2016-Sep-21 08:45N 24°20' E 124°11'0 0.0 27.6
2016-Sep-21 08:15N 24°20' E 124°11'0 0.2 27.9
2016-Sep-21 05:45N 24°20' E 124°11'1 0.2 33.7
2016-Sep-21 01:45N 24°20' E 124°11'0 0.0 29.3
2016-Sep-21 01:00N 24°20' E 124°11'0 0.0 29.4
2016-Sep-21 00:45N 24°20' E 124°11'0 0.1 29.4
2016-Sep-20 22:45N 24°20' E 124°11'0 0.0 26.1
2016-Sep-20 22:30N 24°20' E 124°11'0 0.2 25.8
2016-Sep-20 21:30N 24°20' E 124°11'0 0.0 25.4
2016-Sep-20 21:15N 24°20' E 124°11'0 0.7 25.5
2016-Sep-20 21:00N 24°20' E 124°12'0 0.1 25.6
2016-Sep-20 18:30N 24°20' E 124°11'0 0.0 25.6
2016-Sep-20 18:15N 24°20' E 124°11'0 0.0 25.3
2016-Sep-20 13:15N 24°20' E 124°11'0 0.2 26.1
2016-Sep-20 12:30N 24°20' E 124°11'1 1.2 26.0
2016-Sep-20 11:45N 24°20' E 124°10'0 0.0 26.0
2016-Sep-20 11:30N 24°20' E 124°10'1 0.6 26.1
2016-Sep-20 10:00N 24°20' E 124°11'0 0.5 27.3
2016-Sep-20 09:15N 24°20' E 124°12'0 0.0 29.1
2016-Sep-20 09:00N 24°20' E 124°12'0 0.0 29.6
2016-Sep-20 08:30N 24°20' E 124°12'0 0.0 29.9
2016-Sep-20 08:15N 24°20' E 124°12'0 0.0 32.8
2016-Sep-20 07:30N 24°20' E 124°12'0 0.2 30.7
2016-Sep-20 06:00N 24°20' E 124°11'1 3.2 30.5
2016-Sep-20 05:45N 24°20' E 124°11'1 0.3 30.8
2016-Sep-20 02:00N 24°20' E 124°12'0 0.0 34.2
2016-Sep-20 01:15N 24°20' E 124°12'1 0.9 31.7
2016-Sep-20 00:30N 24°20' E 124°12'0 0.0 29.7
2016-Sep-20 00:15N 24°20' E 124°12'1 0.6 29.1
2016-Sep-19 22:45N 24°20' E 124°11'0 0.3 26.2
2016-Sep-19 22:00N 24°20' E 124°11'0 0.0 25.4
2016-Sep-19 21:45N 24°20' E 124°11'0 0.0 25.3
2016-Sep-19 21:30N 24°20' E 124°11'1 2.3 25.3
2016-Sep-19 21:15N 24°20' E 124°11'0 0.0 25.3
2016-Sep-19 21:00N 24°20' E 124°11'0 0.0 25.3
2016-Sep-19 20:30N 24°20' E 124°11'0 0.0 25.5
2016-Sep-19 20:00N 24°20' E 124°11'0 0.0 25.5
2016-Sep-19 18:45N 24°20' E 124°11'0 0.0 25.3
2016-Sep-19 18:30N 24°20' E 124°11'0 0.1 25.3
2016-Sep-19 13:30N 24°20' E 124°11'0 0.6 25.8
2016-Sep-19 13:00N 24°20' E 124°12'0 0.0 25.8
2016-Sep-19 12:45N 24°20' E 124°12'0 0.0 25.8
2016-Sep-19 12:00N 24°20' E 124°12'0 0.0 25.7
2016-Sep-19 10:45N 24°20' E 124°12'0 0.5 25.7
2016-Sep-19 10:15N 24°20' E 124°11'0 0.1 25.9
2016-Sep-19 09:45N 24°20' E 124°11'1 2.1 26.4
2016-Sep-19 09:30N 24°20' E 124°11'0 0.0 26.7
2016-Sep-19 09:00N 24°20' E 124°11'0 0.0 27.2
2016-Sep-19 08:45N 24°20' E 124°11'0 0.0 27.2
2016-Sep-19 08:30N 24°20' E 124°11'0 0.5 28.6
2016-Sep-19 08:00N 24°20' E 124°11'0 0.0 30.4
2016-Sep-19 06:15N 24°20' E 124°11'0 0.0 31.8
2016-Sep-19 06:00N 24°20' E 124°11'1 0.2 32.2
2016-Sep-19 01:45N 24°20' E 124°12'1 0.2 31.8
2016-Sep-18 23:00N 24°19' E 124°12'0 0.0 25.8
2016-Sep-18 22:15N 24°19' E 124°12'0 0.0 24.9
2016-Sep-18 22:00N 24°19' E 124°12'1 1.6 24.9
2016-Sep-18 21:30N 24°20' E 124°12'0 0.0 24.9
2016-Sep-18 21:15N 24°20' E 124°12'0 0.0 24.9
2016-Sep-18 21:00N 24°20' E 124°12'0 1.5 24.9
2016-Sep-18 20:45N 24°20' E 124°12'0 0.0 24.9
2016-Sep-18 20:30N 24°20' E 124°12'0 0.2 25.0
2016-Sep-18 19:00N 24°20' E 124°12'0 0.0 24.9
2016-Sep-18 18:45N 24°20' E 124°12'1 0.3 24.8
2016-Sep-18 17:15N 24°20' E 124°11'0 0.0 24.2
2016-Sep-18 17:00N 24°20' E 124°11'0 0.0 24.3
2016-Sep-18 14:00N 24°20' E 124°11'0 0.0 25.0
2016-Sep-18 13:15N 24°20' E 124°11'1 0.6 24.9
2016-Sep-18 12:15N 24°20' E 124°12'0 0.2 25.2
2016-Sep-18 10:30N 24°20' E 124°11'0 0.3 25.7
2016-Sep-18 10:00N 24°20' E 124°11'0 0.3 25.8
2016-Sep-18 09:30N 24°20' E 124°11'0 0.7 25.9
2016-Sep-18 09:15N 24°20' E 124°11'0 0.6 26.1
2016-Sep-18 08:45N 24°20' E 124°12'0 0.0 26.7
2016-Sep-18 08:30N 24°20' E 124°12'0 0.0 27.8
2016-Sep-18 08:15N 24°20' E 124°12'0 0.0 27.9
2016-Sep-18 06:15N 24°20' E 124°11'0 0.0 27.9
2016-Sep-18 04:30N 24°20' E 124°11'0 0.0 27.9
2016-Sep-17 23:15N 24°20' E 124°11'0 0.0 27.4
2016-Sep-17 23:00N 24°20' E 124°11'0 0.0 27.5
2016-Sep-17 22:45N 24°20' E 124°11'0 0.0 27.4
2016-Sep-17 21:30N 24°20' E 124°11'0 0.7 27.3
2016-Sep-17 21:15N 24°20' E 124°11'0 0.0 27.7
2016-Sep-17 21:00N 24°20' E 124°11'0 0.1 27.7
2016-Sep-17 19:00N 24°20' E 124°11'0 0.1 28.0
2016-Sep-17 17:30N 24°20' E 124°11'0 0.5 28.1
2016-Sep-17 17:15N 24°20' E 124°11'0 0.0 28.2
2016-Sep-17 14:15N 24°20' E 124°11'1 0.4 28.4
2016-Sep-17 12:45N 24°20' E 124°12'0 0.0 27.7
2016-Sep-17 12:30N 24°20' E 124°12'1 1.5 27.3
2016-Sep-17 12:00N 24°20' E 124°11'0 0.0 27.6
2016-Sep-17 11:45N 24°20' E 124°11'0 0.0 27.8
2016-Sep-17 10:45N 24°20' E 124°11'0 0.0 27.4
2016-Sep-17 10:30N 24°20' E 124°11'0 0.0 27.4
2016-Sep-17 10:00N 24°20' E 124°11'0 0.0 27.4
2016-Sep-17 09:45N 24°20' E 124°11'1 0.8 27.4
2016-Sep-17 08:45N 24°19' E 124°12'0 0.0 28.3
2016-Sep-17 06:30N 24°19' E 124°12'0 0.2 28.2
2016-Sep-17 04:45N 24°19' E 124°12'8 3.2 29.0
2016-Sep-17 02:15N 24°11' E 124°09'3 3.7 29.1
2016-Sep-17 01:30N 24°08' E 124°10'0 0.0 29.1
2016-Sep-17 01:15N 24°08' E 124°10'3 5.5 29.1
2016-Sep-17 00:45N 24°11' E 124°09'3 2.8 29.1
2016-Sep-16 23:45N 24°08' E 124°10'0 0.0 29.1
2016-Sep-16 23:30N 24°08' E 124°10'0 0.0 29.1
2016-Sep-16 23:15N 24°08' E 124°10'4 2.6 29.1
2016-Sep-16 21:45N 24°05' E 124°10'0 0.0 29.1
2016-Sep-16 21:30N 24°05' E 124°10'4 2.8 29.1
2016-Sep-16 20:00N 24°01' E 124°12'3 4.2 29.1
2016-Sep-16 19:15N 23°58' E 124°13'0 0.0 29.1
2016-Sep-16 17:30N 23°58' E 124°13'7 2.0 29.3
2016-Sep-16 14:00N 23°52' E 124°17'0 0.0 29.4
2016-Sep-16 13:45N 23°52' E 124°17'0 0.0 29.4
2016-Sep-16 13:00N 23°52' E 124°17'1 1.4 29.5
2016-Sep-16 12:15N 23°52' E 124°19'0 0.0 29.5
2016-Sep-16 12:00N 23°52' E 124°19'2 2.5 29.5
2016-Sep-16 11:15N 23°51' E 124°20'2 6.2 29.5
2016-Sep-16 11:00N 23°51' E 124°22'0 0.0 29.5
2016-Sep-16 10:45N 23°51' E 124°22'0 0.0 29.5
2016-Sep-16 10:30N 23°51' E 124°22'0 0.0 29.5
2016-Sep-16 10:15N 23°51' E 124°22'2 2.5 29.5
2016-Sep-16 09:15N 23°51' E 124°25'0 0.0 29.6
2016-Sep-16 09:00N 23°51' E 124°25'2 7.3 29.6
2016-Sep-16 08:45N 23°50' E 124°27'0 0.0 29.6
2016-Sep-16 06:45N 23°50' E 124°27'2 6.5 29.6
2016-Sep-16 06:30N 23°49' E 124°28'0 0.0 29.6
2016-Sep-16 05:00N 23°49' E 124°28'2 0.9 29.6
2016-Sep-16 02:45N 23°49' E 124°30'2 7.7 29.6
2016-Sep-16 02:30N 23°50' E 124°32'0 0.0 29.6
2016-Sep-16 01:45N 23°50' E 124°32'0 0.0 29.6
2016-Sep-16 01:00N 23°50' E 124°32'2 2.2 29.6
2016-Sep-16 00:15N 23°51' E 124°33'0 0.0 29.6
2016-Sep-16 00:00N 23°51' E 124°33'1 2.6 29.6
2016-Sep-15 23:30N 23°50' E 124°34'0 0.0 29.6
2016-Sep-15 22:15N 23°50' E 124°34'0 0.7 29.6
2016-Sep-15 22:00N 23°50' E 124°34'0 0.0 29.6
2016-Sep-15 21:45N 23°50' E 124°34'   29.6

Dump ship's entire track history